sensor_id;sensor_type;location;lat;lon;timestamp;P1;durP1;ratioP1;P2;durP2;ratioP2
85081;SDS011;75424;50.762;7.178;2024-02-21T00:02:03;9.75;;;3.45;;
85081;SDS011;75424;50.762;7.178;2024-02-21T00:04:29;9.30;;;3.15;;
85081;SDS011;75424;50.762;7.178;2024-02-21T00:06:54;11.98;;;3.28;;
85081;SDS011;75424;50.762;7.178;2024-02-21T00:09:20;9.90;;;3.85;;
85081;SDS011;75424;50.762;7.178;2024-02-21T00:11:45;8.10;;;4.43;;
85081;SDS011;75424;50.762;7.178;2024-02-21T00:14:11;11.63;;;3.60;;
85081;SDS011;75424;50.762;7.178;2024-02-21T00:16:36;9.07;;;3.58;;
85081;SDS011;75424;50.762;7.178;2024-02-21T00:19:01;9.18;;;3.33;;
85081;SDS011;75424;50.762;7.178;2024-02-21T00:21:27;10.70;;;3.40;;
85081;SDS011;75424;50.762;7.178;2024-02-21T00:23:52;10.80;;;4.03;;
85081;SDS011;75424;50.762;7.178;2024-02-21T00:26:17;8.55;;;3.58;;
85081;SDS011;75424;50.762;7.178;2024-02-21T00:28:43;9.07;;;3.67;;
85081;SDS011;75424;50.762;7.178;2024-02-21T00:31:08;9.80;;;3.60;;
85081;SDS011;75424;50.762;7.178;2024-02-21T00:33:33;8.05;;;3.42;;
85081;SDS011;75424;50.762;7.178;2024-02-21T00:35:59;11.00;;;3.83;;
85081;SDS011;75424;50.762;7.178;2024-02-21T00:38:24;9.10;;;3.70;;
85081;SDS011;75424;50.762;7.178;2024-02-21T00:40:49;7.88;;;3.67;;
85081;SDS011;75424;50.762;7.178;2024-02-21T00:43:15;7.57;;;4.33;;
85081;SDS011;75424;50.762;7.178;2024-02-21T00:45:40;9.73;;;3.42;;
85081;SDS011;75424;50.762;7.178;2024-02-21T00:48:06;8.27;;;3.45;;
85081;SDS011;75424;50.762;7.178;2024-02-21T00:50:32;7.72;;;3.33;;
85081;SDS011;75424;50.762;7.178;2024-02-21T00:52:57;9.70;;;4.07;;
85081;SDS011;75424;50.762;7.178;2024-02-21T00:55:22;7.22;;;3.25;;
85081;SDS011;75424;50.762;7.178;2024-02-21T00:57:48;11.85;;;4.32;;
85081;SDS011;75424;50.762;7.178;2024-02-21T01:00:13;5.93;;;3.38;;
85081;SDS011;75424;50.762;7.178;2024-02-21T01:02:39;10.35;;;3.78;;
85081;SDS011;75424;50.762;7.178;2024-02-21T01:05:04;10.88;;;3.55;;
85081;SDS011;75424;50.762;7.178;2024-02-21T01:07:30;9.70;;;3.65;;
85081;SDS011;75424;50.762;7.178;2024-02-21T01:09:55;7.78;;;3.33;;
85081;SDS011;75424;50.762;7.178;2024-02-21T01:12:20;6.10;;;2.95;;
85081;SDS011;75424;50.762;7.178;2024-02-21T01:14:46;9.35;;;3.50;;
85081;SDS011;75424;50.762;7.178;2024-02-21T01:17:12;10.55;;;3.35;;
85081;SDS011;75424;50.762;7.178;2024-02-21T01:19:37;9.27;;;3.50;;
85081;SDS011;75424;50.762;7.178;2024-02-21T01:22:03;9.68;;;3.97;;
85081;SDS011;75424;50.762;7.178;2024-02-21T01:24:29;8.05;;;2.75;;
85081;SDS011;75424;50.762;7.178;2024-02-21T01:26:54;8.13;;;4.03;;
85081;SDS011;75424;50.762;7.178;2024-02-21T01:29:20;8.50;;;3.25;;
85081;SDS011;75424;50.762;7.178;2024-02-21T01:31:45;9.18;;;3.75;;
85081;SDS011;75424;50.762;7.178;2024-02-21T01:34:10;7.77;;;3.50;;
85081;SDS011;75424;50.762;7.178;2024-02-21T01:36:36;8.48;;;3.78;;
85081;SDS011;75424;50.762;7.178;2024-02-21T01:39:01;9.00;;;4.18;;
85081;SDS011;75424;50.762;7.178;2024-02-21T01:41:29;8.55;;;3.75;;
85081;SDS011;75424;50.762;7.178;2024-02-21T01:43:55;10.15;;;3.92;;
85081;SDS011;75424;50.762;7.178;2024-02-21T01:46:20;9.07;;;4.47;;
85081;SDS011;75424;50.762;7.178;2024-02-21T01:48:45;8.38;;;4.00;;
85081;SDS011;75424;50.762;7.178;2024-02-21T01:51:11;6.47;;;3.50;;
85081;SDS011;75424;50.762;7.178;2024-02-21T01:53:38;9.57;;;3.47;;
85081;SDS011;75424;50.762;7.178;2024-02-21T01:56:08;9.02;;;4.03;;
85081;SDS011;75424;50.762;7.178;2024-02-21T01:58:34;9.15;;;3.50;;
85081;SDS011;75424;50.762;7.178;2024-02-21T02:01:05;6.25;;;3.53;;
85081;SDS011;75424;50.762;7.178;2024-02-21T02:03:30;11.02;;;3.38;;
85081;SDS011;75424;50.762;7.178;2024-02-21T02:05:56;5.68;;;3.38;;
85081;SDS011;75424;50.762;7.178;2024-02-21T02:08:21;10.10;;;3.05;;
85081;SDS011;75424;50.762;7.178;2024-02-21T02:10:47;7.30;;;3.28;;
85081;SDS011;75424;50.762;7.178;2024-02-21T02:13:13;9.23;;;3.30;;
85081;SDS011;75424;50.762;7.178;2024-02-21T02:15:42;8.85;;;3.20;;
85081;SDS011;75424;50.762;7.178;2024-02-21T02:18:15;9.27;;;3.25;;
85081;SDS011;75424;50.762;7.178;2024-02-21T02:20:42;7.50;;;3.00;;
85081;SDS011;75424;50.762;7.178;2024-02-21T02:23:28;10.10;;;3.08;;
85081;SDS011;75424;50.762;7.178;2024-02-21T02:25:54;5.82;;;3.30;;
85081;SDS011;75424;50.762;7.178;2024-02-21T02:28:21;6.43;;;2.78;;
85081;SDS011;75424;50.762;7.178;2024-02-21T02:30:47;9.18;;;3.53;;
85081;SDS011;75424;50.762;7.178;2024-02-21T02:33:13;8.60;;;3.13;;
85081;SDS011;75424;50.762;7.178;2024-02-21T02:35:38;8.98;;;2.80;;
85081;SDS011;75424;50.762;7.178;2024-02-21T02:38:04;8.73;;;3.15;;
85081;SDS011;75424;50.762;7.178;2024-02-21T02:40:33;8.95;;;3.50;;
85081;SDS011;75424;50.762;7.178;2024-02-21T02:42:58;10.95;;;3.17;;
85081;SDS011;75424;50.762;7.178;2024-02-21T02:45:24;8.98;;;3.58;;
85081;SDS011;75424;50.762;7.178;2024-02-21T02:47:51;8.45;;;4.60;;
85081;SDS011;75424;50.762;7.178;2024-02-21T02:50:20;10.05;;;4.07;;
85081;SDS011;75424;50.762;7.178;2024-02-21T02:52:45;8.20;;;3.10;;
85081;SDS011;75424;50.762;7.178;2024-02-21T02:55:11;6.60;;;2.92;;
85081;SDS011;75424;50.762;7.178;2024-02-21T02:57:36;7.53;;;3.65;;
85081;SDS011;75424;50.762;7.178;2024-02-21T03:00:02;10.07;;;3.88;;
85081;SDS011;75424;50.762;7.178;2024-02-21T03:02:28;5.78;;;2.67;;
85081;SDS011;75424;50.762;7.178;2024-02-21T03:04:55;6.93;;;3.63;;
85081;SDS011;75424;50.762;7.178;2024-02-21T03:07:20;9.77;;;3.60;;
85081;SDS011;75424;50.762;7.178;2024-02-21T03:09:45;7.35;;;3.25;;
85081;SDS011;75424;50.762;7.178;2024-02-21T03:12:11;6.75;;;2.97;;
85081;SDS011;75424;50.762;7.178;2024-02-21T03:14:36;14.00;;;3.95;;
85081;SDS011;75424;50.762;7.178;2024-02-21T03:17:02;7.72;;;3.05;;
85081;SDS011;75424;50.762;7.178;2024-02-21T03:19:28;10.30;;;3.40;;
85081;SDS011;75424;50.762;7.178;2024-02-21T03:21:53;7.53;;;2.97;;
85081;SDS011;75424;50.762;7.178;2024-02-21T03:24:19;6.80;;;3.10;;
85081;SDS011;75424;50.762;7.178;2024-02-21T03:26:44;12.02;;;3.90;;
85081;SDS011;75424;50.762;7.178;2024-02-21T03:29:16;6.90;;;3.00;;
85081;SDS011;75424;50.762;7.178;2024-02-21T03:31:42;7.28;;;3.15;;
85081;SDS011;75424;50.762;7.178;2024-02-21T03:34:10;11.00;;;3.25;;
85081;SDS011;75424;50.762;7.178;2024-02-21T03:36:36;7.85;;;2.80;;
85081;SDS011;75424;50.762;7.178;2024-02-21T03:39:01;8.43;;;3.15;;
85081;SDS011;75424;50.762;7.178;2024-02-21T03:41:27;5.68;;;2.97;;
85081;SDS011;75424;50.762;7.178;2024-02-21T03:43:52;10.02;;;3.75;;
85081;SDS011;75424;50.762;7.178;2024-02-21T03:46:17;11.68;;;3.80;;
85081;SDS011;75424;50.762;7.178;2024-02-21T03:48:42;8.60;;;3.30;;
85081;SDS011;75424;50.762;7.178;2024-02-21T03:51:08;7.20;;;2.97;;
85081;SDS011;75424;50.762;7.178;2024-02-21T03:53:34;7.75;;;3.00;;
85081;SDS011;75424;50.762;7.178;2024-02-21T03:56:03;6.72;;;3.25;;
85081;SDS011;75424;50.762;7.178;2024-02-21T03:58:29;7.78;;;3.38;;
85081;SDS011;75424;50.762;7.178;2024-02-21T04:00:55;7.72;;;3.13;;
85081;SDS011;75424;50.762;7.178;2024-02-21T04:03:20;8.65;;;3.42;;
85081;SDS011;75424;50.762;7.178;2024-02-21T04:05:46;9.82;;;3.33;;
85081;SDS011;75424;50.762;7.178;2024-02-21T04:08:11;7.97;;;3.05;;
85081;SDS011;75424;50.762;7.178;2024-02-21T04:10:37;8.43;;;3.40;;
85081;SDS011;75424;50.762;7.178;2024-02-21T04:13:02;8.82;;;2.75;;
85081;SDS011;75424;50.762;7.178;2024-02-21T04:15:28;9.80;;;3.25;;
85081;SDS011;75424;50.762;7.178;2024-02-21T04:17:54;7.95;;;2.72;;
85081;SDS011;75424;50.762;7.178;2024-02-21T04:20:19;10.60;;;3.70;;
85081;SDS011;75424;50.762;7.178;2024-02-21T04:22:44;8.25;;;3.50;;
85081;SDS011;75424;50.762;7.178;2024-02-21T04:25:10;7.55;;;2.85;;
85081;SDS011;75424;50.762;7.178;2024-02-21T04:27:37;8.85;;;2.80;;
85081;SDS011;75424;50.762;7.178;2024-02-21T04:30:03;6.38;;;2.85;;
85081;SDS011;75424;50.762;7.178;2024-02-21T04:32:28;7.68;;;2.80;;
85081;SDS011;75424;50.762;7.178;2024-02-21T04:34:54;9.82;;;2.92;;
85081;SDS011;75424;50.762;7.178;2024-02-21T04:37:20;6.22;;;3.00;;
85081;SDS011;75424;50.762;7.178;2024-02-21T04:39:45;7.10;;;2.38;;
85081;SDS011;75424;50.762;7.178;2024-02-21T04:42:11;7.25;;;2.53;;
85081;SDS011;75424;50.762;7.178;2024-02-21T04:44:36;7.47;;;2.70;;
85081;SDS011;75424;50.762;7.178;2024-02-21T04:47:02;8.15;;;3.03;;
85081;SDS011;75424;50.762;7.178;2024-02-21T04:49:28;13.13;;;2.90;;
85081;SDS011;75424;50.762;7.178;2024-02-21T04:51:54;9.23;;;3.10;;
85081;SDS011;75424;50.762;7.178;2024-02-21T04:54:19;11.50;;;3.13;;
85081;SDS011;75424;50.762;7.178;2024-02-21T04:56:45;5.70;;;2.40;;
85081;SDS011;75424;50.762;7.178;2024-02-21T04:59:10;9.20;;;2.67;;
85081;SDS011;75424;50.762;7.178;2024-02-21T05:01:35;7.90;;;2.63;;
85081;SDS011;75424;50.762;7.178;2024-02-21T05:04:00;7.07;;;2.80;;
85081;SDS011;75424;50.762;7.178;2024-02-21T05:06:26;8.38;;;3.03;;
85081;SDS011;75424;50.762;7.178;2024-02-21T05:08:51;6.83;;;3.07;;
85081;SDS011;75424;50.762;7.178;2024-02-21T05:11:16;7.10;;;2.20;;
85081;SDS011;75424;50.762;7.178;2024-02-21T05:13:42;6.50;;;2.65;;
85081;SDS011;75424;50.762;7.178;2024-02-21T05:16:07;6.40;;;2.10;;
85081;SDS011;75424;50.762;7.178;2024-02-21T05:18:32;7.22;;;2.83;;
85081;SDS011;75424;50.762;7.178;2024-02-21T05:20:58;5.78;;;2.30;;
85081;SDS011;75424;50.762;7.178;2024-02-21T05:23:24;6.13;;;2.83;;
85081;SDS011;75424;50.762;7.178;2024-02-21T05:25:49;9.75;;;3.17;;
85081;SDS011;75424;50.762;7.178;2024-02-21T05:28:15;7.97;;;2.97;;
85081;SDS011;75424;50.762;7.178;2024-02-21T05:30:40;9.27;;;2.23;;
85081;SDS011;75424;50.762;7.178;2024-02-21T05:33:08;7.93;;;3.10;;
85081;SDS011;75424;50.762;7.178;2024-02-21T05:35:33;6.65;;;2.90;;
85081;SDS011;75424;50.762;7.178;2024-02-21T05:38:00;5.03;;;2.33;;
85081;SDS011;75424;50.762;7.178;2024-02-21T05:40:25;6.93;;;2.50;;
85081;SDS011;75424;50.762;7.178;2024-02-21T05:42:51;5.88;;;1.80;;
85081;SDS011;75424;50.762;7.178;2024-02-21T05:45:17;4.47;;;2.20;;
85081;SDS011;75424;50.762;7.178;2024-02-21T05:47:42;5.82;;;2.55;;
85081;SDS011;75424;50.762;7.178;2024-02-21T05:50:08;2.92;;;1.88;;
85081;SDS011;75424;50.762;7.178;2024-02-21T05:52:34;4.57;;;2.20;;
85081;SDS011;75424;50.762;7.178;2024-02-21T05:54:59;5.97;;;2.15;;
85081;SDS011;75424;50.762;7.178;2024-02-21T05:57:25;8.48;;;2.70;;
85081;SDS011;75424;50.762;7.178;2024-02-21T05:59:50;5.85;;;2.35;;
85081;SDS011;75424;50.762;7.178;2024-02-21T06:02:15;4.75;;;2.35;;
85081;SDS011;75424;50.762;7.178;2024-02-21T06:04:41;7.63;;;1.90;;
85081;SDS011;75424;50.762;7.178;2024-02-21T06:07:07;6.35;;;2.05;;
85081;SDS011;75424;50.762;7.178;2024-02-21T06:09:33;4.53;;;2.15;;
85081;SDS011;75424;50.762;7.178;2024-02-21T06:11:59;6.75;;;2.90;;
85081;SDS011;75424;50.762;7.178;2024-02-21T06:14:24;6.40;;;2.70;;
85081;SDS011;75424;50.762;7.178;2024-02-21T06:16:49;8.10;;;2.20;;
85081;SDS011;75424;50.762;7.178;2024-02-21T06:19:15;5.32;;;2.33;;
85081;SDS011;75424;50.762;7.178;2024-02-21T06:21:40;4.25;;;2.45;;
85081;SDS011;75424;50.762;7.178;2024-02-21T06:24:05;5.82;;;2.60;;
85081;SDS011;75424;50.762;7.178;2024-02-21T06:26:31;6.50;;;2.30;;
85081;SDS011;75424;50.762;7.178;2024-02-21T06:28:56;8.35;;;2.30;;
85081;SDS011;75424;50.762;7.178;2024-02-21T06:31:22;6.85;;;2.30;;
85081;SDS011;75424;50.762;7.178;2024-02-21T06:33:47;5.28;;;2.33;;
85081;SDS011;75424;50.762;7.178;2024-02-21T06:36:13;5.32;;;2.47;;
85081;SDS011;75424;50.762;7.178;2024-02-21T06:38:38;8.77;;;2.45;;
85081;SDS011;75424;50.762;7.178;2024-02-21T06:41:03;7.50;;;2.08;;
85081;SDS011;75424;50.762;7.178;2024-02-21T06:43:29;6.65;;;2.90;;
85081;SDS011;75424;50.762;7.178;2024-02-21T06:45:54;6.75;;;2.80;;
85081;SDS011;75424;50.762;7.178;2024-02-21T06:48:21;5.07;;;2.03;;
85081;SDS011;75424;50.762;7.178;2024-02-21T06:50:47;6.28;;;2.40;;
85081;SDS011;75424;50.762;7.178;2024-02-21T06:53:12;8.35;;;2.40;;
85081;SDS011;75424;50.762;7.178;2024-02-21T06:55:37;5.32;;;2.55;;
85081;SDS011;75424;50.762;7.178;2024-02-21T06:58:03;6.30;;;2.17;;
85081;SDS011;75424;50.762;7.178;2024-02-21T07:00:29;8.43;;;2.53;;
85081;SDS011;75424;50.762;7.178;2024-02-21T07:02:54;9.23;;;2.78;;
85081;SDS011;75424;50.762;7.178;2024-02-21T07:05:20;4.88;;;2.08;;
85081;SDS011;75424;50.762;7.178;2024-02-21T07:07:45;9.07;;;2.80;;
85081;SDS011;75424;50.762;7.178;2024-02-21T07:10:11;6.50;;;2.72;;
85081;SDS011;75424;50.762;7.178;2024-02-21T07:17:46;6.03;;;2.15;;
85081;SDS011;75424;50.762;7.178;2024-02-21T07:20:12;8.23;;;3.33;;
85081;SDS011;75424;50.762;7.178;2024-02-21T07:22:37;8.45;;;2.92;;
85081;SDS011;75424;50.762;7.178;2024-02-21T07:25:03;6.13;;;2.45;;
85081;SDS011;75424;50.762;7.178;2024-02-21T07:27:28;7.63;;;2.97;;
85081;SDS011;75424;50.762;7.178;2024-02-21T07:29:56;7.68;;;2.90;;
85081;SDS011;75424;50.762;7.178;2024-02-21T07:32:22;5.45;;;3.08;;
85081;SDS011;75424;50.762;7.178;2024-02-21T07:34:47;10.40;;;3.67;;
85081;SDS011;75424;50.762;7.178;2024-02-21T07:37:12;6.72;;;3.03;;
85081;SDS011;75424;50.762;7.178;2024-02-21T07:39:38;6.78;;;3.17;;
85081;SDS011;75424;50.762;7.178;2024-02-21T07:42:03;5.13;;;2.83;;
85081;SDS011;75424;50.762;7.178;2024-02-21T07:44:29;6.60;;;2.80;;
85081;SDS011;75424;50.762;7.178;2024-02-21T07:46:54;5.67;;;2.73;;
85081;SDS011;75424;50.762;7.178;2024-02-21T07:49:19;6.23;;;2.80;;
85081;SDS011;75424;50.762;7.178;2024-02-21T07:51:45;11.27;;;3.70;;
85081;SDS011;75424;50.762;7.178;2024-02-21T07:54:10;8.27;;;2.45;;
85081;SDS011;75424;50.762;7.178;2024-02-21T07:56:36;5.82;;;2.40;;
85081;SDS011;75424;50.762;7.178;2024-02-21T07:59:01;7.67;;;3.23;;
85081;SDS011;75424;50.762;7.178;2024-02-21T08:01:26;10.88;;;3.22;;
85081;SDS011;75424;50.762;7.178;2024-02-21T08:03:52;7.50;;;3.53;;
85081;SDS011;75424;50.762;7.178;2024-02-21T08:06:17;6.22;;;2.63;;
85081;SDS011;75424;50.762;7.178;2024-02-21T08:08:42;7.53;;;2.92;;
85081;SDS011;75424;50.762;7.178;2024-02-21T08:11:08;7.45;;;2.88;;
85081;SDS011;75424;50.762;7.178;2024-02-21T08:13:33;10.35;;;3.15;;
85081;SDS011;75424;50.762;7.178;2024-02-21T08:15:58;6.00;;;3.00;;
85081;SDS011;75424;50.762;7.178;2024-02-21T08:18:23;8.20;;;3.27;;
85081;SDS011;75424;50.762;7.178;2024-02-21T08:20:49;8.10;;;3.05;;
85081;SDS011;75424;50.762;7.178;2024-02-21T08:23:15;7.57;;;3.10;;
85081;SDS011;75424;50.762;7.178;2024-02-21T08:25:41;11.43;;;3.03;;
85081;SDS011;75424;50.762;7.178;2024-02-21T08:28:06;5.30;;;3.03;;
85081;SDS011;75424;50.762;7.178;2024-02-21T08:30:33;9.02;;;2.80;;
85081;SDS011;75424;50.762;7.178;2024-02-21T08:32:58;9.07;;;2.50;;
85081;SDS011;75424;50.762;7.178;2024-02-21T08:35:23;6.45;;;2.83;;
85081;SDS011;75424;50.762;7.178;2024-02-21T08:37:49;5.65;;;3.38;;
85081;SDS011;75424;50.762;7.178;2024-02-21T08:40:15;8.25;;;2.80;;
85081;SDS011;75424;50.762;7.178;2024-02-21T08:42:44;9.13;;;2.88;;
85081;SDS011;75424;50.762;7.178;2024-02-21T08:45:10;7.47;;;3.03;;
85081;SDS011;75424;50.762;7.178;2024-02-21T08:47:35;12.10;;;3.92;;
85081;SDS011;75424;50.762;7.178;2024-02-21T08:50:01;7.60;;;2.53;;
85081;SDS011;75424;50.762;7.178;2024-02-21T08:52:27;6.05;;;2.58;;
85081;SDS011;75424;50.762;7.178;2024-02-21T08:54:53;5.70;;;2.70;;
85081;SDS011;75424;50.762;7.178;2024-02-21T08:57:18;5.72;;;3.10;;
85081;SDS011;75424;50.762;7.178;2024-02-21T08:59:44;6.38;;;2.58;;
85081;SDS011;75424;50.762;7.178;2024-02-21T09:02:09;8.97;;;3.07;;
85081;SDS011;75424;50.762;7.178;2024-02-21T09:04:35;8.57;;;2.93;;
85081;SDS011;75424;50.762;7.178;2024-02-21T09:07:00;14.30;;;3.22;;
85081;SDS011;75424;50.762;7.178;2024-02-21T09:09:25;6.45;;;3.45;;
85081;SDS011;75424;50.762;7.178;2024-02-21T09:11:53;4.57;;;2.40;;
85081;SDS011;75424;50.762;7.178;2024-02-21T09:14:18;8.85;;;2.88;;
85081;SDS011;75424;50.762;7.178;2024-02-21T09:16:43;5.47;;;2.80;;
85081;SDS011;75424;50.762;7.178;2024-02-21T09:19:09;7.78;;;2.90;;
85081;SDS011;75424;50.762;7.178;2024-02-21T09:21:36;6.15;;;2.60;;
85081;SDS011;75424;50.762;7.178;2024-02-21T09:24:02;5.65;;;2.40;;
85081;SDS011;75424;50.762;7.178;2024-02-21T09:26:28;10.05;;;3.20;;
85081;SDS011;75424;50.762;7.178;2024-02-21T09:28:53;11.68;;;3.13;;
85081;SDS011;75424;50.762;7.178;2024-02-21T09:31:19;8.80;;;2.40;;
85081;SDS011;75424;50.762;7.178;2024-02-21T09:33:44;7.82;;;2.97;;
85081;SDS011;75424;50.762;7.178;2024-02-21T09:36:10;5.32;;;2.70;;
85081;SDS011;75424;50.762;7.178;2024-02-21T09:38:35;7.60;;;2.78;;
85081;SDS011;75424;50.762;7.178;2024-02-21T09:41:07;5.20;;;2.58;;
85081;SDS011;75424;50.762;7.178;2024-02-21T09:43:44;10.85;;;3.03;;
85081;SDS011;75424;50.762;7.178;2024-02-21T09:46:17;5.20;;;2.13;;
85081;SDS011;75424;50.762;7.178;2024-02-21T09:48:51;6.20;;;2.55;;
85081;SDS011;75424;50.762;7.178;2024-02-21T09:51:20;5.05;;;2.75;;
85081;SDS011;75424;50.762;7.178;2024-02-21T09:53:46;7.55;;;2.90;;
85081;SDS011;75424;50.762;7.178;2024-02-21T09:56:12;6.07;;;2.55;;
85081;SDS011;75424;50.762;7.178;2024-02-21T09:58:38;12.13;;;4.05;;
85081;SDS011;75424;50.762;7.178;2024-02-21T10:01:04;9.35;;;2.60;;
85081;SDS011;75424;50.762;7.178;2024-02-21T10:03:31;9.02;;;2.58;;
85081;SDS011;75424;50.762;7.178;2024-02-21T10:05:58;6.78;;;3.45;;
85081;SDS011;75424;50.762;7.178;2024-02-21T10:08:25;7.13;;;2.17;;
85081;SDS011;75424;50.762;7.178;2024-02-21T10:10:51;5.43;;;2.17;;
85081;SDS011;75424;50.762;7.178;2024-02-21T10:13:26;9.07;;;2.92;;
85081;SDS011;75424;50.762;7.178;2024-02-21T10:18:28;7.20;;;3.20;;
85081;SDS011;75424;50.762;7.178;2024-02-21T10:21:06;10.77;;;2.60;;
85081;SDS011;75424;50.762;7.178;2024-02-21T10:23:42;5.68;;;2.42;;
85081;SDS011;75424;50.762;7.178;2024-02-21T10:26:10;5.13;;;2.53;;
85081;SDS011;75424;50.762;7.178;2024-02-21T10:28:36;8.85;;;2.95;;
85081;SDS011;75424;50.762;7.178;2024-02-21T10:31:06;4.57;;;2.28;;
85081;SDS011;75424;50.762;7.178;2024-02-21T10:33:32;6.55;;;2.42;;
85081;SDS011;75424;50.762;7.178;2024-02-21T10:36:05;12.32;;;2.90;;
85081;SDS011;75424;50.762;7.178;2024-02-21T10:38:35;6.80;;;2.33;;
85081;SDS011;75424;50.762;7.178;2024-02-21T10:41:05;6.82;;;2.80;;
85081;SDS011;75424;50.762;7.178;2024-02-21T10:43:33;5.55;;;2.90;;
85081;SDS011;75424;50.762;7.178;2024-02-21T10:46:07;8.80;;;2.60;;
85081;SDS011;75424;50.762;7.178;2024-02-21T10:48:46;4.45;;;3.03;;
85081;SDS011;75424;50.762;7.178;2024-02-21T10:51:19;7.72;;;2.33;;
85081;SDS011;75424;50.762;7.178;2024-02-21T10:53:48;5.78;;;2.30;;
85081;SDS011;75424;50.762;7.178;2024-02-21T10:59:00;5.18;;;2.63;;
85081;SDS011;75424;50.762;7.178;2024-02-21T11:01:33;4.78;;;2.30;;
85081;SDS011;75424;50.762;7.178;2024-02-21T11:04:04;4.72;;;2.70;;
85081;SDS011;75424;50.762;7.178;2024-02-21T11:06:31;6.80;;;2.40;;
85081;SDS011;75424;50.762;7.178;2024-02-21T11:09:08;8.15;;;2.88;;
85081;SDS011;75424;50.762;7.178;2024-02-21T11:14:09;6.80;;;2.55;;
85081;SDS011;75424;50.762;7.178;2024-02-21T11:16:44;4.63;;;2.05;;
85081;SDS011;75424;50.762;7.178;2024-02-21T11:19:10;7.57;;;3.05;;
85081;SDS011;75424;50.762;7.178;2024-02-21T11:21:47;4.05;;;2.17;;
85081;SDS011;75424;50.762;7.178;2024-02-21T11:24:13;3.70;;;1.80;;
85081;SDS011;75424;50.762;7.178;2024-02-21T11:26:50;9.00;;;2.53;;
85081;SDS011;75424;50.762;7.178;2024-02-21T11:29:15;4.47;;;2.08;;
85081;SDS011;75424;50.762;7.178;2024-02-21T11:31:48;3.92;;;2.30;;
85081;SDS011;75424;50.762;7.178;2024-02-21T11:34:13;5.65;;;2.38;;
85081;SDS011;75424;50.762;7.178;2024-02-21T11:36:47;6.10;;;2.20;;
85081;SDS011;75424;50.762;7.178;2024-02-21T11:39:20;6.93;;;2.35;;
85081;SDS011;75424;50.762;7.178;2024-02-21T11:41:47;3.63;;;1.40;;
85081;SDS011;75424;50.762;7.178;2024-02-21T11:44:13;5.40;;;2.00;;
85081;SDS011;75424;50.762;7.178;2024-02-21T11:46:38;6.25;;;2.33;;
85081;SDS011;75424;50.762;7.178;2024-02-21T11:49:04;4.72;;;1.92;;
85081;SDS011;75424;50.762;7.178;2024-02-21T11:51:29;3.58;;;2.20;;
85081;SDS011;75424;50.762;7.178;2024-02-21T11:53:55;3.60;;;1.53;;
85081;SDS011;75424;50.762;7.178;2024-02-21T11:56:20;4.83;;;1.60;;
85081;SDS011;75424;50.762;7.178;2024-02-21T11:58:46;5.53;;;2.88;;
85081;SDS011;75424;50.762;7.178;2024-02-21T12:01:12;5.43;;;2.17;;
85081;SDS011;75424;50.762;7.178;2024-02-21T12:03:38;4.03;;;1.77;;
85081;SDS011;75424;50.762;7.178;2024-02-21T12:06:06;6.43;;;2.35;;
85081;SDS011;75424;50.762;7.178;2024-02-21T12:08:41;5.22;;;1.90;;
85081;SDS011;75424;50.762;7.178;2024-02-21T12:11:17;4.50;;;2.00;;
85081;SDS011;75424;50.762;7.178;2024-02-21T12:13:46;4.25;;;2.10;;
85081;SDS011;75424;50.762;7.178;2024-02-21T12:16:14;4.80;;;1.88;;
85081;SDS011;75424;50.762;7.178;2024-02-21T12:18:41;7.60;;;2.30;;
85081;SDS011;75424;50.762;7.178;2024-02-21T12:21:06;3.88;;;1.67;;
85081;SDS011;75424;50.762;7.178;2024-02-21T12:23:32;6.68;;;2.40;;
85081;SDS011;75424;50.762;7.178;2024-02-21T12:25:58;7.83;;;2.90;;
85081;SDS011;75424;50.762;7.178;2024-02-21T12:28:24;5.13;;;1.92;;
85081;SDS011;75424;50.762;7.178;2024-02-21T12:30:49;5.05;;;1.92;;
85081;SDS011;75424;50.762;7.178;2024-02-21T12:33:15;3.35;;;1.90;;
85081;SDS011;75424;50.762;7.178;2024-02-21T12:35:40;3.95;;;2.08;;
85081;SDS011;75424;50.762;7.178;2024-02-21T12:38:06;5.22;;;2.22;;
85081;SDS011;75424;50.762;7.178;2024-02-21T12:40:31;4.22;;;1.88;;
85081;SDS011;75424;50.762;7.178;2024-02-21T12:42:58;6.00;;;2.25;;
85081;SDS011;75424;50.762;7.178;2024-02-21T12:47:53;5.07;;;2.40;;
85081;SDS011;75424;50.762;7.178;2024-02-21T12:50:18;8.38;;;2.13;;
85081;SDS011;75424;50.762;7.178;2024-02-21T12:52:44;4.03;;;1.70;;
85081;SDS011;75424;50.762;7.178;2024-02-21T12:55:10;4.05;;;2.30;;
85081;SDS011;75424;50.762;7.178;2024-02-21T12:57:37;4.15;;;1.83;;
85081;SDS011;75424;50.762;7.178;2024-02-21T13:00:02;4.90;;;2.47;;
85081;SDS011;75424;50.762;7.178;2024-02-21T13:02:28;8.48;;;2.30;;
85081;SDS011;75424;50.762;7.178;2024-02-21T13:04:54;4.75;;;2.42;;
85081;SDS011;75424;50.762;7.178;2024-02-21T13:07:19;5.95;;;2.60;;
85081;SDS011;75424;50.762;7.178;2024-02-21T13:09:44;5.05;;;2.42;;
85081;SDS011;75424;50.762;7.178;2024-02-21T13:12:10;7.57;;;2.90;;
85081;SDS011;75424;50.762;7.178;2024-02-21T13:14:35;5.97;;;2.45;;
85081;SDS011;75424;50.762;7.178;2024-02-21T13:17:03;3.83;;;2.22;;
85081;SDS011;75424;50.762;7.178;2024-02-21T13:19:29;9.13;;;2.42;;
85081;SDS011;75424;50.762;7.178;2024-02-21T13:21:54;7.28;;;2.00;;
85081;SDS011;75424;50.762;7.178;2024-02-21T13:24:20;4.82;;;2.38;;
85081;SDS011;75424;50.762;7.178;2024-02-21T13:26:45;2.97;;;1.90;;
85081;SDS011;75424;50.762;7.178;2024-02-21T13:29:10;5.60;;;1.88;;
85081;SDS011;75424;50.762;7.178;2024-02-21T13:31:36;7.38;;;1.95;;
85081;SDS011;75424;50.762;7.178;2024-02-21T13:34:02;5.50;;;2.08;;
85081;SDS011;75424;50.762;7.178;2024-02-21T13:36:28;6.10;;;1.85;;
85081;SDS011;75424;50.762;7.178;2024-02-21T13:38:53;4.88;;;1.75;;
85081;SDS011;75424;50.762;7.178;2024-02-21T13:41:18;6.88;;;2.35;;
85081;SDS011;75424;50.762;7.178;2024-02-21T13:43:44;4.13;;;2.15;;
85081;SDS011;75424;50.762;7.178;2024-02-21T13:46:11;4.22;;;1.67;;
85081;SDS011;75424;50.762;7.178;2024-02-21T13:48:36;3.63;;;2.03;;
85081;SDS011;75424;50.762;7.178;2024-02-21T13:51:02;5.82;;;2.05;;
85081;SDS011;75424;50.762;7.178;2024-02-21T13:53:28;3.45;;;2.00;;
85081;SDS011;75424;50.762;7.178;2024-02-21T13:55:53;9.38;;;2.40;;
85081;SDS011;75424;50.762;7.178;2024-02-21T13:58:19;5.75;;;2.40;;
85081;SDS011;75424;50.762;7.178;2024-02-21T14:00:45;6.85;;;2.25;;
85081;SDS011;75424;50.762;7.178;2024-02-21T14:03:10;3.83;;;1.90;;
85081;SDS011;75424;50.762;7.178;2024-02-21T14:05:35;6.03;;;2.13;;
85081;SDS011;75424;50.762;7.178;2024-02-21T14:08:01;4.75;;;1.63;;
85081;SDS011;75424;50.762;7.178;2024-02-21T14:10:30;2.83;;;1.52;;
85081;SDS011;75424;50.762;7.178;2024-02-21T14:12:55;5.53;;;2.03;;
85081;SDS011;75424;50.762;7.178;2024-02-21T14:15:22;4.72;;;1.77;;
85081;SDS011;75424;50.762;7.178;2024-02-21T14:17:47;4.82;;;1.92;;
85081;SDS011;75424;50.762;7.178;2024-02-21T14:20:12;7.97;;;2.30;;
85081;SDS011;75424;50.762;7.178;2024-02-21T14:22:41;5.55;;;1.67;;
85081;SDS011;75424;50.762;7.178;2024-02-21T14:25:06;5.37;;;1.73;;
85081;SDS011;75424;50.762;7.178;2024-02-21T14:27:32;3.20;;;2.15;;
85081;SDS011;75424;50.762;7.178;2024-02-21T14:29:57;4.10;;;1.90;;
85081;SDS011;75424;50.762;7.178;2024-02-21T14:32:22;6.82;;;2.22;;
85081;SDS011;75424;50.762;7.178;2024-02-21T14:34:48;5.65;;;2.38;;
85081;SDS011;75424;50.762;7.178;2024-02-21T14:37:14;8.38;;;2.13;;
85081;SDS011;75424;50.762;7.178;2024-02-21T14:39:39;3.55;;;1.70;;
85081;SDS011;75424;50.762;7.178;2024-02-21T14:42:05;6.80;;;2.35;;
85081;SDS011;75424;50.762;7.178;2024-02-21T14:44:32;2.78;;;1.63;;
85081;SDS011;75424;50.762;7.178;2024-02-21T14:46:57;6.47;;;3.07;;
85081;SDS011;75424;50.762;7.178;2024-02-21T14:49:22;5.00;;;2.20;;
85081;SDS011;75424;50.762;7.178;2024-02-21T14:51:48;4.82;;;2.17;;
85081;SDS011;75424;50.762;7.178;2024-02-21T14:54:13;4.47;;;2.28;;
85081;SDS011;75424;50.762;7.178;2024-02-21T14:56:38;5.63;;;2.22;;